createdAt,value
2019-02-26T00:00:51.934Z,33.80
2019-02-26T00:01:53.000Z,35.20
2019-02-26T00:02:52.995Z,37.60
2019-02-26T00:03:51.181Z,33.20
2019-02-26T00:04:53.521Z,35.40
2019-02-26T00:05:52.224Z,33.90
2019-02-26T00:06:51.838Z,37.70
2019-02-26T00:07:52.921Z,37.00
2019-02-26T00:08:53.323Z,32.70
2019-02-26T00:09:53.248Z,34.30
2019-02-26T00:10:54.731Z,29.90
2019-02-26T00:11:51.232Z,29.70
2019-02-26T00:12:51.230Z,31.10
2019-02-26T00:13:52.428Z,28.30
2019-02-26T00:14:52.923Z,31.50
2019-02-26T00:15:51.250Z,33.40
2019-02-26T00:16:51.250Z,35.40
2019-02-26T00:17:52.898Z,34.00
2019-02-26T00:18:51.274Z,29.10
2019-02-26T00:19:51.285Z,33.30
2019-02-26T00:20:51.279Z,37.00
2019-02-26T00:21:51.890Z,31.50
2019-02-26T00:22:52.962Z,29.90
2019-02-26T00:23:53.057Z,30.00
2019-02-26T00:24:51.295Z,33.40
2019-02-26T00:25:51.311Z,32.20
2019-02-26T00:26:51.313Z,32.40
2019-02-26T00:27:52.425Z,34.60
2019-02-26T00:28:51.330Z,32.90
2019-02-26T00:29:53.019Z,35.10
2019-02-26T00:30:51.330Z,34.90
2019-02-26T00:31:53.001Z,40.70
2019-02-26T00:32:53.114Z,70.80
2019-02-26T00:33:51.353Z,68.50
2019-02-26T00:34:53.082Z,45.90
2019-02-26T00:35:51.370Z,37.40
2019-02-26T00:36:51.380Z,43.50
2019-02-26T00:37:53.310Z,36.10
2019-02-26T00:38:51.395Z,34.40
2019-02-26T00:39:51.772Z,32.90
2019-02-26T00:40:51.404Z,36.00
2019-02-26T00:41:53.534Z,43.00
2019-02-26T00:42:54.351Z,36.60
2019-02-26T00:43:53.513Z,37.00
2019-02-26T00:44:53.635Z,36.20
2019-02-26T00:45:53.340Z,32.80
2019-02-26T00:46:53.416Z,31.70
2019-02-26T00:47:51.442Z,37.10
2019-02-26T00:48:51.446Z,34.80
2019-02-26T00:49:53.387Z,33.40
2019-02-26T00:50:52.265Z,35.90
2019-02-26T00:51:52.772Z,32.00
2019-02-26T00:52:52.322Z,35.50
2019-02-26T00:53:53.323Z,31.00
2019-02-26T00:54:53.598Z,33.30
2019-02-26T00:55:51.643Z,32.40
2019-02-26T00:56:51.495Z,35.00
2019-02-26T00:57:51.498Z,34.10
2019-02-26T00:58:51.506Z,31.70
2019-02-26T00:59:51.525Z,35.00
2019-02-26T01:00:51.516Z,31.80
2019-02-26T01:01:52.548Z,36.50
2019-02-26T01:02:51.538Z,41.20
2019-02-26T01:03:51.945Z,33.80
2019-02-26T01:04:51.540Z,30.80
2019-02-26T01:05:51.552Z,32.50
2019-02-26T01:06:51.556Z,31.20
2019-02-26T01:07:52.633Z,30.60
2019-02-26T01:08:51.554Z,34.50
2019-02-26T01:09:52.400Z,39.00
2019-02-26T01:10:51.575Z,33.10
2019-02-26T01:11:52.019Z,33.50
2019-02-26T01:12:51.599Z,35.10
2019-02-26T01:13:52.814Z,37.60
2019-02-26T01:14:51.607Z,32.80
2019-02-26T01:15:51.612Z,34.90
2019-02-26T01:16:51.620Z,37.10
2019-02-26T01:17:51.630Z,35.80
2019-02-26T01:18:53.195Z,37.00
2019-02-26T01:19:51.645Z,35.20
2019-02-26T01:20:52.583Z,37.80
2019-02-26T01:21:51.637Z,32.90
2019-02-26T01:22:51.642Z,31.60
2019-02-26T01:23:51.643Z,32.60
2019-02-26T01:24:51.955Z,32.90
2019-02-26T01:25:54.185Z,34.60
2019-02-26T01:27:53.223Z,36.30
2019-02-26T01:28:53.570Z,31.20
2019-02-26T01:29:53.526Z,37.30
2019-02-26T01:30:55.657Z,35.20
2019-02-26T01:31:51.693Z,32.90
2019-02-26T01:32:51.703Z,31.40
2019-02-26T01:33:52.965Z,35.50
2019-02-26T01:34:51.712Z,39.00
2019-02-26T01:35:52.938Z,33.90
2019-02-26T01:36:51.734Z,32.90
2019-02-26T01:37:53.664Z,37.50
2019-02-26T01:38:53.149Z,32.20
2019-02-26T01:39:52.218Z,34.70
2019-02-26T01:40:53.665Z,35.60
2019-02-26T01:41:54.063Z,32.20
2019-02-26T01:42:54.623Z,34.00
2019-02-26T01:43:51.760Z,33.90
2019-02-26T01:45:54.957Z,32.90
2019-02-26T01:46:53.346Z,35.50
2019-02-26T01:47:52.792Z,32.60
2019-02-26T01:48:53.058Z,36.50
2019-02-26T01:49:51.801Z,33.10
2019-02-26T01:50:52.594Z,37.30
2019-02-26T01:51:53.841Z,33.10
2019-02-26T01:52:52.351Z,32.00
2019-02-26T01:53:53.585Z,33.60
2019-02-26T01:54:53.566Z,31.30
2019-02-26T01:55:51.826Z,34.40
2019-02-26T01:56:53.405Z,31.20
2019-02-26T01:57:51.844Z,32.00
2019-02-26T01:58:56.540Z,30.00
2019-02-26T01:59:51.849Z,31.90
2019-02-26T02:00:55.333Z,33.00
2019-02-26T02:01:53.614Z,35.50
2019-02-26T02:02:51.862Z,32.30
2019-02-26T02:03:53.859Z,34.30
2019-02-26T02:04:51.894Z,31.60
2019-02-26T02:05:52.998Z,33.80
2019-02-26T02:06:51.896Z,32.60
2019-02-26T02:07:53.599Z,32.10
2019-02-26T02:08:53.566Z,31.90
2019-02-26T02:09:53.264Z,36.50
2019-02-26T02:10:56.334Z,31.50
2019-02-26T02:11:51.919Z,34.60
2019-02-26T02:12:55.215Z,33.80
2019-02-26T02:13:51.926Z,35.80
2019-02-26T02:14:51.930Z,31.10
2019-02-26T02:15:51.948Z,34.60
2019-02-26T02:16:51.939Z,31.00
2019-02-26T02:17:51.952Z,33.30
2019-02-26T02:18:53.571Z,34.40
2019-02-26T02:19:51.963Z,38.20
2019-02-26T02:20:51.974Z,34.60
2019-02-26T02:21:53.815Z,31.10
2019-02-26T02:22:51.972Z,29.80
2019-02-26T02:23:52.952Z,34.30
2019-02-26T02:24:53.948Z,38.40
2019-02-26T02:25:51.994Z,31.60
2019-02-26T02:26:53.553Z,32.70
2019-02-26T02:27:54.498Z,33.60
2019-02-26T02:28:52.009Z,32.00
2019-02-26T02:29:54.849Z,35.70
2019-02-26T02:30:52.015Z,34.80
2019-02-26T02:31:52.355Z,32.00
2019-02-26T02:32:55.082Z,30.10
2019-02-26T02:33:52.040Z,30.70
2019-02-26T02:34:52.047Z,33.60
2019-02-26T02:35:52.046Z,33.30
2019-02-26T02:36:52.044Z,31.70
2019-02-26T02:37:53.538Z,32.80
2019-02-26T02:38:52.064Z,28.90
2019-02-26T02:39:52.064Z,35.00
2019-02-26T02:40:54.754Z,34.40
2019-02-26T02:41:54.837Z,32.40
2019-02-26T02:42:52.089Z,34.40
2019-02-26T02:43:52.089Z,29.80
2019-02-26T02:44:52.801Z,32.40
2019-02-26T02:45:53.115Z,31.20
2019-02-26T02:46:52.103Z,34.50
2019-02-26T02:47:55.025Z,32.10
2019-02-26T02:48:52.118Z,33.70
2019-02-26T02:49:52.124Z,32.90
2019-02-26T02:50:52.176Z,32.80
2019-02-26T02:51:52.133Z,29.80
2019-02-26T02:52:53.596Z,30.40
2019-02-26T02:53:54.101Z,31.90
2019-02-26T02:54:52.150Z,31.00
2019-02-26T02:55:52.155Z,31.10
2019-02-26T02:56:52.159Z,31.20
2019-02-26T02:57:54.962Z,31.90
2019-02-26T02:58:52.171Z,26.10
2019-02-26T02:59:54.325Z,30.00
2019-02-26T03:00:54.058Z,28.40
2019-02-26T03:01:54.820Z,27.60
2019-02-26T03:02:53.117Z,31.30
2019-02-26T03:03:53.846Z,27.80
2019-02-26T03:04:52.200Z,28.80
2019-02-26T03:05:52.200Z,28.10
2019-02-26T03:06:53.009Z,27.90
2019-02-26T03:07:54.052Z,28.20
2019-02-26T03:08:53.524Z,25.90
2019-02-26T03:09:52.229Z,30.50
2019-02-26T03:10:52.226Z,28.70
2019-02-26T03:11:53.051Z,26.70
2019-02-26T03:12:55.156Z,26.90
2019-02-26T03:13:53.880Z,27.60
2019-02-26T03:14:52.245Z,27.50
2019-02-26T03:15:53.548Z,26.40
2019-02-26T03:16:53.434Z,28.50
2019-02-26T03:17:52.266Z,27.00
2019-02-26T03:18:52.269Z,30.00
2019-02-26T03:19:52.275Z,27.10
2019-02-26T03:20:53.820Z,26.30
2019-02-26T03:21:52.584Z,29.00
2019-02-26T03:22:52.289Z,28.10
2019-02-26T03:23:52.292Z,31.20
2019-02-26T03:24:54.379Z,27.80
2019-02-26T03:25:54.865Z,26.70
2019-02-26T03:26:52.304Z,30.30
2019-02-26T03:27:52.311Z,26.90
2019-02-26T03:28:53.271Z,38.40
2019-02-26T03:29:53.369Z,28.60
2019-02-26T03:30:52.327Z,30.40
2019-02-26T03:31:55.236Z,28.80
2019-02-26T03:32:58.257Z,26.90
2019-02-26T03:33:59.960Z,29.40
2019-02-26T03:34:52.351Z,28.20
2019-02-26T03:35:52.352Z,26.50
2019-02-26T03:36:52.354Z,27.20
2019-02-26T03:37:57.264Z,28.50
2019-02-26T03:38:54.790Z,29.10
2019-02-26T03:39:54.585Z,28.30
2019-02-26T03:40:54.689Z,27.60
2019-02-26T03:41:53.596Z,30.10
2019-02-26T03:42:52.388Z,27.70
2019-02-26T03:43:54.297Z,28.50
2019-02-26T03:44:52.397Z,26.40
2019-02-26T03:45:52.414Z,27.60
2019-02-26T03:46:52.411Z,27.40
2019-02-26T03:47:55.293Z,28.70
2019-02-26T03:48:52.429Z,28.70
2019-02-26T03:49:52.450Z,25.00
2019-02-26T03:50:52.435Z,26.00
2019-02-26T03:51:52.428Z,28.60
2019-02-26T03:52:52.436Z,28.30
2019-02-26T03:53:52.444Z,29.60
2019-02-26T03:54:52.444Z,34.10
2019-02-26T03:55:52.447Z,33.60
2019-02-26T03:56:52.455Z,29.00
2019-02-26T03:57:54.381Z,26.70
2019-02-26T03:58:56.964Z,29.70
2019-02-26T03:59:52.466Z,30.50
2019-02-26T04:00:52.467Z,26.40
2019-02-26T04:01:52.477Z,31.50
2019-02-26T04:02:52.486Z,32.80
2019-02-26T04:03:54.668Z,33.10
2019-02-26T04:04:54.255Z,28.70
2019-02-26T04:05:52.499Z,27.90
2019-02-26T04:06:52.502Z,27.00
2019-02-26T04:07:55.603Z,31.80
2019-02-26T04:08:53.585Z,32.80
2019-02-26T04:09:53.829Z,28.60
2019-02-26T04:10:53.700Z,26.40
2019-02-26T04:11:53.416Z,29.20
2019-02-26T04:12:55.303Z,26.80
2019-02-26T04:13:54.560Z,30.90
2019-02-26T04:14:52.544Z,30.90
2019-02-26T04:15:54.093Z,28.90
2019-02-26T04:16:52.549Z,29.80
2019-02-26T04:17:52.555Z,31.00
2019-02-26T04:18:52.561Z,30.90
2019-02-26T04:19:52.563Z,33.80
2019-02-26T04:20:52.567Z,29.50
2019-02-26T04:21:52.569Z,30.00
2019-02-26T04:22:56.026Z,34.30
2019-02-26T04:23:52.582Z,32.00
2019-02-26T04:24:54.930Z,35.00
2019-02-26T04:25:54.058Z,32.90
2019-02-26T04:26:52.599Z,30.10
2019-02-26T04:27:52.599Z,28.40
2019-02-26T04:28:52.698Z,32.80
2019-02-26T04:29:52.615Z,30.70
2019-02-26T04:30:52.613Z,28.50
2019-02-26T04:31:54.539Z,33.00
2019-02-26T04:32:52.625Z,31.90
2019-02-26T04:33:53.713Z,30.60
2019-02-26T04:34:54.624Z,30.20
2019-02-26T04:35:55.410Z,29.60
2019-02-26T04:36:52.638Z,28.50
2019-02-26T04:37:53.246Z,32.30
2019-02-26T04:38:53.225Z,31.80
2019-02-26T04:39:52.652Z,33.40
2019-02-26T04:40:55.437Z,34.00
2019-02-26T04:41:52.661Z,35.50
2019-02-26T04:42:52.664Z,32.40
2019-02-26T04:43:54.896Z,28.40
2019-02-26T04:44:55.187Z,31.90
2019-02-26T04:45:52.677Z,24.80
2019-02-26T04:46:53.926Z,28.20
2019-02-26T04:47:56.978Z,33.20
2019-02-26T04:48:52.696Z,28.90
2019-02-26T04:49:54.430Z,33.60
2019-02-26T04:50:52.699Z,30.40
2019-02-26T04:51:52.706Z,31.80
2019-02-26T04:52:52.709Z,31.00
2019-02-26T04:53:54.159Z,34.40
2019-02-26T04:54:52.717Z,35.30
2019-02-26T04:55:52.719Z,46.50
2019-02-26T04:56:52.735Z,33.40
2019-02-26T04:57:54.040Z,39.90
2019-02-26T04:58:52.740Z,34.30
2019-02-26T04:59:52.746Z,35.10
2019-02-26T05:00:52.747Z,40.60
2019-02-26T05:01:54.992Z,36.20
2019-02-26T05:02:52.757Z,38.80
2019-02-26T05:03:52.761Z,35.30
2019-02-26T05:04:52.770Z,30.50
2019-02-26T05:05:55.995Z,30.20
2019-02-26T05:06:52.771Z,31.10
2019-02-26T05:07:52.779Z,40.00
2019-02-26T05:08:52.782Z,37.60
2019-02-26T05:09:55.865Z,34.50
2019-02-26T05:10:55.029Z,33.30
2019-02-26T05:11:52.799Z,36.80
2019-02-26T05:12:56.170Z,36.40
2019-02-26T05:13:52.804Z,36.80
2019-02-26T05:14:52.813Z,31.60
2019-02-26T05:15:52.807Z,34.30
2019-02-26T05:16:52.821Z,34.90
2019-02-26T05:17:52.824Z,29.60
2019-02-26T05:18:55.011Z,38.70
2019-02-26T05:19:52.834Z,33.90
2019-02-26T05:20:52.849Z,36.10
2019-02-26T05:21:53.622Z,36.40
2019-02-26T05:22:54.680Z,34.00
2019-02-26T05:23:55.021Z,34.80
2019-02-26T05:24:52.946Z,35.90
2019-02-26T05:25:52.865Z,35.60
2019-02-26T05:26:52.870Z,33.80
2019-02-26T05:27:52.868Z,38.90
2019-02-26T05:28:52.876Z,35.10
2019-02-26T05:29:54.763Z,43.20
2019-02-26T05:30:52.881Z,41.00
2019-02-26T05:31:55.435Z,31.40
2019-02-26T05:32:56.604Z,30.60
2019-02-26T05:33:55.348Z,36.70
2019-02-26T05:34:52.896Z,34.10
2019-02-26T05:36:52.915Z,33.60
2019-02-26T05:37:55.486Z,38.20
2019-02-26T05:38:54.640Z,37.00
2019-02-26T05:39:54.566Z,33.70
2019-02-26T05:40:55.321Z,37.80
2019-02-26T05:41:54.990Z,38.10
2019-02-26T05:42:53.349Z,42.80
2019-02-26T05:43:57.842Z,42.90
2019-02-26T05:44:54.524Z,40.90
2019-02-26T05:45:54.864Z,37.90
2019-02-26T05:46:54.226Z,39.50
2019-02-26T05:47:54.733Z,44.50
2019-02-26T05:48:52.969Z,35.30
2019-02-26T05:49:52.967Z,45.60
2019-02-26T05:50:52.963Z,36.70
2019-02-26T05:51:53.490Z,38.10
2019-02-26T05:52:57.611Z,38.80
2019-02-26T05:53:52.985Z,34.60
2019-02-26T05:54:52.985Z,42.00
2019-02-26T05:55:54.183Z,40.50
2019-02-26T05:56:52.992Z,36.00
2019-02-26T05:57:52.999Z,35.10
2019-02-26T05:58:53.005Z,40.50
2019-02-26T05:59:53.008Z,38.00
2019-02-26T06:00:53.006Z,41.10
2019-02-26T06:01:55.435Z,34.80
2019-02-26T06:02:53.018Z,34.90
2019-02-26T06:03:53.014Z,32.80
2019-02-26T06:04:53.056Z,34.80
2019-02-26T06:05:55.627Z,36.00
2019-02-26T06:06:55.605Z,37.20
2019-02-26T06:07:53.061Z,42.60
2019-02-26T06:08:55.232Z,54.50
2019-02-26T06:09:55.725Z,45.00
2019-02-26T06:10:53.056Z,53.00
2019-02-26T06:11:53.053Z,49.20
2019-02-26T06:12:53.067Z,46.00
2019-02-26T06:13:55.536Z,47.60
2019-02-26T06:14:54.157Z,50.40
2019-02-26T06:15:55.226Z,51.40
2019-02-26T06:16:55.424Z,49.30
2019-02-26T06:17:53.931Z,49.50
2019-02-26T06:18:54.443Z,48.60
2019-02-26T06:19:53.083Z,45.40
2019-02-26T06:20:53.618Z,50.30
2019-02-26T06:21:54.810Z,55.60
2019-02-26T06:22:53.100Z,61.10
2019-02-26T06:23:53.103Z,61.20
2019-02-26T06:24:57.287Z,51.40
2019-02-26T06:25:55.157Z,59.10
2019-02-26T06:26:53.123Z,52.90
2019-02-26T06:27:53.128Z,62.80
2019-02-26T06:28:53.121Z,56.10
2019-02-26T06:29:57.250Z,52.70
2019-02-26T06:30:55.044Z,61.50
2019-02-26T06:31:53.142Z,55.60
2019-02-26T06:32:53.139Z,54.30
2019-02-26T06:33:53.146Z,48.00
2019-02-26T06:34:53.163Z,54.10
2019-02-26T06:35:54.800Z,45.10
2019-02-26T06:36:53.308Z,46.20
2019-02-26T06:37:53.163Z,48.20
2019-02-26T06:38:54.164Z,46.80
2019-02-26T06:39:55.659Z,51.90
2019-02-26T06:40:53.173Z,47.90
2019-02-26T06:41:53.173Z,41.20
2019-02-26T06:42:53.185Z,45.50
2019-02-26T06:43:54.967Z,44.40
2019-02-26T06:44:53.189Z,39.30
2019-02-26T06:45:53.189Z,48.00
2019-02-26T06:46:53.197Z,49.10
2019-02-26T06:47:54.609Z,44.80
2019-02-26T06:48:53.203Z,39.20
2019-02-26T06:49:53.210Z,41.50
2019-02-26T06:50:55.177Z,41.00
2019-02-26T06:51:54.315Z,51.70
2019-02-26T06:52:53.222Z,41.10
2019-02-26T06:53:54.267Z,41.40
2019-02-26T06:54:56.889Z,42.50
2019-02-26T06:55:53.235Z,39.60
2019-02-26T06:56:53.260Z,42.10
2019-02-26T06:57:55.190Z,51.70
2019-02-26T06:58:53.248Z,46.90
2019-02-26T06:59:55.509Z,40.70
2019-02-26T07:00:55.368Z,40.00
2019-02-26T07:01:55.597Z,48.20
2019-02-26T07:02:53.264Z,46.00
2019-02-26T07:03:53.858Z,46.40
2019-02-26T07:04:53.273Z,40.30
2019-02-26T07:05:53.279Z,43.60
2019-02-26T07:06:55.220Z,44.80
2019-02-26T07:07:56.551Z,36.00
2019-02-26T07:08:53.579Z,40.60
2019-02-26T07:09:53.296Z,39.10
2019-02-26T07:10:53.303Z,43.70
2019-02-26T07:11:53.307Z,41.30
2019-02-26T07:12:53.313Z,37.00
2019-02-26T07:13:53.895Z,37.30
2019-02-26T07:14:55.345Z,41.30
2019-02-26T07:15:53.326Z,42.00
2019-02-26T07:16:53.326Z,40.40
2019-02-26T07:17:53.337Z,40.20
2019-02-26T07:18:53.332Z,47.90
2019-02-26T07:19:55.470Z,48.10
2019-02-26T07:20:57.251Z,52.50
2019-02-26T07:21:53.351Z,49.50
2019-02-26T07:22:53.360Z,43.30
2019-02-26T07:23:54.598Z,46.20
2019-02-26T07:24:54.011Z,48.60
2019-02-26T07:25:53.368Z,44.80
2019-02-26T07:26:53.381Z,49.00
2019-02-26T07:27:54.201Z,56.70
2019-02-26T07:28:53.381Z,49.00
2019-02-26T07:29:53.388Z,46.50
2019-02-26T07:30:53.393Z,47.20
2019-02-26T07:31:54.106Z,47.50
2019-02-26T07:32:53.403Z,42.60
2019-02-26T07:33:55.739Z,42.50
2019-02-26T07:34:53.415Z,38.40
2019-02-26T07:35:56.387Z,39.80
2019-02-26T07:36:53.414Z,40.00
2019-02-26T07:37:54.535Z,41.10
2019-02-26T07:38:56.012Z,38.40
2019-02-26T07:39:53.435Z,40.30
2019-02-26T07:40:54.316Z,46.60
2019-02-26T07:41:54.400Z,43.50
2019-02-26T07:42:53.449Z,37.50
2019-02-26T07:43:54.709Z,44.60
2019-02-26T07:44:53.462Z,49.40
2019-02-26T07:45:53.474Z,41.90
2019-02-26T07:46:53.472Z,36.00
2019-02-26T07:47:55.981Z,36.40
2019-02-26T07:48:53.962Z,40.10
2019-02-26T07:49:56.476Z,36.10
2019-02-26T07:50:53.507Z,38.00
2019-02-26T07:51:55.512Z,38.10
2019-02-26T07:52:55.250Z,35.80
2019-02-26T07:53:54.354Z,32.40
2019-02-26T07:54:53.546Z,38.90
2019-02-26T07:55:53.558Z,43.30
2019-02-26T07:56:55.111Z,47.20
2019-02-26T07:57:53.588Z,40.20
2019-02-26T07:58:56.924Z,38.00
2019-02-26T07:59:53.618Z,37.80
2019-02-26T08:00:53.611Z,42.30
2019-02-26T08:01:53.623Z,49.30
2019-02-26T08:02:56.389Z,41.90
2019-02-26T08:03:53.651Z,36.40
2019-02-26T08:04:53.659Z,41.00
2019-02-26T08:05:53.671Z,44.30
2019-02-26T08:06:56.270Z,36.40
2019-02-26T08:07:56.268Z,41.20
2019-02-26T08:08:53.723Z,38.10
2019-02-26T08:09:53.725Z,35.10
2019-02-26T08:10:53.734Z,32.70
2019-02-26T08:11:53.747Z,42.90
2019-02-26T08:12:53.759Z,34.00
2019-02-26T08:13:54.319Z,35.70
2019-02-26T08:14:53.785Z,41.70
2019-02-26T08:15:55.137Z,33.20
2019-02-26T08:16:56.067Z,32.30
2019-02-26T08:17:57.554Z,33.50
2019-02-26T08:18:54.726Z,41.30
2019-02-26T08:20:15.072Z,36.50
2019-02-26T08:20:56.887Z,34.40
2019-02-26T08:21:55.016Z,49.60
2019-02-26T08:22:54.715Z,44.40
2019-02-26T08:23:53.917Z,41.80
2019-02-26T08:24:55.524Z,34.00
2019-02-26T08:25:55.654Z,35.00
2019-02-26T08:26:53.967Z,33.60
2019-02-26T08:27:55.970Z,38.00
2019-02-26T08:28:53.991Z,35.80
2019-02-26T08:29:56.023Z,35.10
2019-02-26T08:30:55.235Z,33.50
2019-02-26T08:31:54.590Z,27.50
2019-02-26T08:32:56.107Z,28.50
2019-02-26T08:33:54.072Z,31.90
2019-02-26T08:34:54.099Z,30.30
2019-02-26T08:35:56.145Z,30.80
2019-02-26T08:36:54.116Z,31.20
2019-02-26T08:37:54.133Z,30.10
2019-02-26T08:38:56.488Z,29.10
2019-02-26T08:39:57.421Z,29.60
2019-02-26T08:40:54.191Z,24.50
2019-02-26T08:41:54.200Z,34.30
2019-02-26T08:42:54.212Z,29.00
2019-02-26T08:43:56.299Z,31.30
2019-02-26T08:44:55.906Z,26.90
2019-02-26T08:45:54.259Z,32.10
2019-02-26T08:46:54.279Z,25.60
2019-02-26T08:47:54.298Z,30.60
2019-02-26T08:48:54.312Z,26.10
2019-02-26T08:49:54.325Z,31.70
2019-02-26T08:50:55.836Z,26.30
2019-02-26T08:51:54.352Z,37.80
2019-02-26T08:52:56.241Z,36.30
2019-02-26T08:53:55.320Z,29.30
2019-02-26T08:54:54.407Z,30.80
2019-02-26T08:55:56.278Z,30.00
2019-02-26T08:56:54.463Z,29.30
2019-02-26T08:57:56.404Z,26.00
2019-02-26T08:58:54.472Z,28.40
2019-02-26T08:59:54.711Z,24.70
2019-02-26T09:00:54.503Z,26.90
2019-02-26T09:01:54.522Z,30.20
2019-02-26T09:02:56.710Z,29.70
2019-02-26T09:03:55.825Z,29.50
2019-02-26T09:04:54.560Z,29.60
2019-02-26T09:05:57.013Z,31.60
2019-02-26T09:06:55.451Z,29.00
2019-02-26T09:07:54.622Z,28.00
2019-02-26T09:08:55.532Z,25.70
2019-02-26T09:09:57.279Z,29.10
2019-02-26T09:10:54.673Z,33.30
2019-02-26T09:11:55.911Z,25.70
2019-02-26T09:12:54.706Z,25.60
2019-02-26T09:13:56.335Z,36.90
2019-02-26T09:14:54.739Z,25.20
2019-02-26T09:15:55.610Z,26.90
2019-02-26T09:16:56.898Z,26.00
2019-02-26T09:17:54.788Z,22.70
2019-02-26T09:18:54.816Z,25.10
2019-02-26T09:20:06.437Z,26.80
2019-02-26T09:20:54.838Z,28.30
2019-02-26T09:21:54.917Z,24.20
2019-02-26T09:22:56.477Z,26.60
2019-02-26T09:23:56.915Z,32.00
2019-02-26T09:24:56.840Z,25.80
2019-02-26T09:25:57.173Z,24.00
2019-02-26T09:26:57.493Z,28.80
2019-02-26T09:27:54.956Z,25.00
2019-02-26T09:28:57.081Z,28.30
2019-02-26T09:29:54.995Z,25.10
2019-02-26T09:30:56.301Z,21.90
2019-02-26T09:31:55.026Z,24.60
2019-02-26T09:32:55.044Z,23.20
2019-02-26T09:33:55.057Z,22.70
2019-02-26T09:34:56.848Z,19.30
2019-02-26T09:35:56.729Z,21.40
2019-02-26T09:36:55.543Z,24.10
2019-02-26T09:37:58.392Z,21.80
2019-02-26T09:38:55.146Z,21.60
2019-02-26T09:39:57.370Z,21.80
2019-02-26T09:40:56.967Z,20.80
2019-02-26T09:41:57.012Z,22.30
2019-02-26T09:42:58.152Z,18.70
2019-02-26T09:43:55.238Z,23.20
2019-02-26T09:44:55.936Z,16.50
2019-02-26T09:45:55.266Z,20.10
2019-02-26T09:46:57.273Z,23.30
2019-02-26T09:47:57.774Z,19.00
2019-02-26T09:48:55.325Z,22.60
2019-02-26T09:49:56.181Z,19.80
2019-02-26T09:50:55.357Z,22.10
2019-02-26T09:51:56.836Z,22.20
2019-02-26T09:52:58.239Z,22.30
2019-02-26T09:53:56.592Z,19.20
2019-02-26T09:54:55.448Z,21.80
2019-02-26T09:55:55.448Z,21.70
2019-02-26T09:56:55.473Z,20.60
2019-02-26T09:57:55.477Z,21.60
2019-02-26T09:58:55.498Z,22.90
2019-02-26T09:59:58.162Z,25.60
2019-02-26T10:00:55.534Z,22.20
2019-02-26T10:01:56.526Z,21.60
2019-02-26T10:02:55.579Z,23.20
2019-02-26T10:03:55.969Z,28.50
2019-02-26T10:04:55.618Z,22.50
2019-02-26T10:05:57.739Z,22.80
2019-02-26T10:06:55.639Z,22.80
2019-02-26T10:07:58.022Z,19.00
2019-02-26T10:08:56.166Z,22.30
2019-02-26T10:09:55.706Z,20.50
2019-02-26T10:10:57.651Z,20.00
2019-02-26T10:11:55.735Z,19.90
2019-02-26T10:12:57.323Z,21.10
2019-02-26T10:13:55.771Z,19.40
2019-02-26T10:14:59.589Z,20.40
2019-02-26T10:15:58.255Z,17.30
2019-02-26T10:16:57.008Z,18.20
2019-02-26T10:17:58.310Z,20.20
2019-02-26T10:18:56.805Z,19.90
2019-02-26T10:19:56.968Z,19.40
2019-02-26T10:20:56.009Z,15.90
2019-02-26T10:21:57.274Z,18.40
2019-02-26T10:22:57.815Z,17.00
2019-02-26T10:23:56.709Z,16.00
2019-02-26T10:24:56.000Z,15.10
2019-02-26T10:25:57.817Z,16.50
2019-02-26T10:26:58.659Z,19.00
2019-02-26T10:27:56.019Z,18.30
2019-02-26T10:28:59.076Z,18.10
2019-02-26T10:29:56.051Z,18.60
2019-02-26T10:30:57.009Z,15.10
2019-02-26T10:31:56.803Z,18.40
2019-02-26T10:32:56.116Z,22.10
2019-02-26T10:33:56.144Z,18.60
2019-02-26T10:34:56.152Z,16.60
2019-02-26T10:35:56.168Z,15.90
2019-02-26T10:36:56.188Z,19.60
2019-02-26T10:37:57.056Z,15.90
2019-02-26T10:38:57.869Z,16.10
2019-02-26T10:39:56.261Z,19.50
2019-02-26T10:40:58.845Z,17.80
2019-02-26T10:41:56.285Z,17.00
2019-02-26T10:42:56.299Z,19.20
2019-02-26T10:43:56.331Z,20.30
2019-02-26T10:44:56.510Z,16.80
2019-02-26T10:45:56.359Z,17.90
2019-02-26T10:46:58.330Z,19.10
2019-02-26T10:47:58.749Z,17.40
2019-02-26T10:48:56.428Z,20.40
2019-02-26T10:49:56.547Z,18.20
2019-02-26T10:50:56.554Z,17.80
2019-02-26T10:51:57.738Z,16.90
2019-02-26T10:53:01.421Z,19.90
2019-02-26T10:53:57.530Z,17.70
2019-02-26T10:54:56.530Z,16.80
2019-02-26T10:55:56.544Z,16.80
2019-02-26T10:56:57.420Z,18.30
2019-02-26T10:57:58.613Z,19.30
2019-02-26T10:59:01.937Z,19.40
2019-02-26T10:59:59.175Z,18.30
2019-02-26T11:00:59.405Z,16.70
2019-02-26T11:01:58.422Z,17.60
2019-02-26T11:02:56.685Z,17.60
2019-02-26T11:03:56.721Z,17.60
2019-02-26T11:04:56.723Z,17.90
2019-02-26T11:05:56.734Z,16.20
2019-02-26T11:06:56.747Z,16.90
2019-02-26T11:07:59.794Z,16.70
2019-02-26T11:09:01.121Z,16.60
2019-02-26T11:09:58.905Z,17.20
2019-02-26T11:10:56.827Z,17.60
2019-02-26T11:11:58.362Z,17.20
2019-02-26T11:12:59.504Z,17.10
2019-02-26T11:13:56.880Z,17.00
2019-02-26T11:14:58.636Z,17.30
2019-02-26T11:15:59.835Z,15.30
2019-02-26T11:16:56.947Z,17.10
2019-02-26T11:17:56.967Z,17.10
2019-02-26T11:18:58.807Z,17.30
2019-02-26T11:19:58.519Z,16.80
2019-02-26T11:20:59.291Z,17.50
2019-02-26T11:21:58.633Z,17.90
2019-02-26T11:22:57.083Z,18.80
2019-02-26T11:23:58.505Z,18.30
2019-02-26T11:24:58.557Z,18.50
2019-02-26T11:25:57.129Z,18.20
2019-02-26T11:26:57.181Z,18.40
2019-02-26T11:27:57.168Z,17.90
2019-02-26T11:28:57.182Z,18.20
2019-02-26T11:29:59.470Z,17.60
2019-02-26T11:30:57.222Z,17.20
2019-02-26T11:31:57.239Z,17.10
2019-02-26T11:33:02.150Z,16.90
2019-02-26T11:34:00.109Z,17.90
2019-02-26T11:34:58.018Z,17.30
2019-02-26T11:35:59.538Z,16.60
2019-02-26T11:36:58.493Z,17.70
2019-02-26T11:37:58.118Z,17.50
2019-02-26T11:38:59.909Z,18.00
2019-02-26T11:39:58.281Z,18.20
2019-02-26T11:40:57.427Z,18.50
2019-02-26T11:42:00.722Z,16.60
2019-02-26T11:42:59.802Z,18.10
2019-02-26T11:43:57.480Z,16.60
2019-02-26T11:44:57.508Z,18.20
2019-02-26T11:45:59.156Z,19.70
2019-02-26T11:46:58.246Z,17.10
2019-02-26T11:48:00.368Z,17.60
2019-02-26T11:48:57.679Z,17.60
2019-02-26T11:49:59.516Z,17.00
2019-02-26T11:51:00.756Z,18.80
2019-02-26T11:51:57.639Z,18.10
2019-02-26T11:52:57.660Z,17.40
2019-02-26T11:54:00.125Z,16.90
2019-02-26T11:54:58.825Z,16.80
2019-02-26T11:55:59.909Z,17.10
2019-02-26T11:56:57.738Z,17.60
2019-02-26T11:57:57.762Z,17.20
2019-02-26T11:58:57.779Z,19.60
2019-02-26T11:59:59.422Z,17.50
2019-02-26T12:01:59.092Z,17.00
2019-02-26T12:02:57.873Z,19.70
2019-02-26T12:04:02.511Z,21.40
2019-02-26T12:04:59.887Z,21.50
2019-02-26T12:06:00.554Z,18.80
2019-02-26T12:06:58.499Z,18.70
2019-02-26T12:07:58.825Z,17.70
2019-02-26T12:08:57.982Z,19.00
2019-02-26T12:10:01.878Z,19.50
2019-02-26T12:11:03.343Z,18.60
2019-02-26T12:11:58.525Z,16.60
2019-02-26T12:13:00.035Z,16.80
2019-02-26T12:13:58.081Z,21.00
2019-02-26T12:14:58.107Z,17.90
2019-02-26T12:15:58.134Z,17.10
2019-02-26T12:16:58.151Z,17.30
2019-02-26T12:17:58.771Z,17.60
2019-02-26T12:18:58.922Z,15.30
2019-02-26T12:20:00.306Z,15.10
2019-02-26T12:21:00.007Z,15.40
2019-02-26T12:22:01.283Z,16.10
2019-02-26T12:22:58.261Z,16.30
2019-02-26T12:24:00.577Z,14.20
2019-02-26T12:24:59.984Z,15.80
2019-02-26T12:26:01.020Z,16.40
2019-02-26T12:26:58.353Z,15.80
2019-02-26T12:28:00.237Z,15.60
2019-02-26T12:28:59.580Z,16.60
2019-02-26T12:29:58.419Z,15.90
2019-02-26T12:31:00.768Z,15.90
2019-02-26T12:32:01.067Z,16.40
2019-02-26T12:32:58.483Z,16.40
2019-02-26T12:33:58.499Z,16.00
2019-02-26T12:34:58.525Z,16.40
2019-02-26T12:35:59.522Z,15.30
2019-02-26T12:37:02.069Z,16.10
2019-02-26T12:38:59.936Z,15.10
2019-02-26T12:39:58.622Z,15.20
2019-02-26T12:40:58.642Z,16.10
2019-02-26T12:41:58.669Z,17.50
2019-02-26T12:42:58.686Z,16.40
2019-02-26T12:44:00.849Z,16.60
2019-02-26T12:45:01.847Z,15.40
2019-02-26T12:45:59.425Z,14.80
2019-02-26T12:47:00.487Z,14.20
2019-02-26T12:47:58.788Z,14.00
2019-02-26T12:48:58.811Z,14.30
2019-02-26T12:50:01.984Z,15.70
2019-02-26T12:51:01.467Z,14.40
2019-02-26T12:51:59.928Z,15.30
2019-02-26T12:52:58.904Z,16.40
2019-02-26T12:54:00.539Z,15.10
2019-02-26T12:55:00.687Z,14.60
2019-02-26T12:56:01.975Z,15.60
2019-02-26T12:57:00.638Z,15.10
2019-02-26T12:57:59.626Z,15.50